sensor_id;sensor_type;location;lat;lon;timestamp;temperature;humidity
72604;DHT22;60645;56.968;24.196;2023-03-18T00:00:48;4.60;59.40
72604;DHT22;60645;56.968;24.196;2023-03-18T00:03:15;4.70;59.60
72604;DHT22;60645;56.968;24.196;2023-03-18T00:05:43;4.70;59.40
72604;DHT22;60645;56.968;24.196;2023-03-18T00:08:10;4.60;59.70
72604;DHT22;60645;56.968;24.196;2023-03-18T00:10:37;4.60;60.00
72604;DHT22;60645;56.968;24.196;2023-03-18T00:13:05;4.70;60.30
72604;DHT22;60645;56.968;24.196;2023-03-18T00:15:32;4.60;60.00
72604;DHT22;60645;56.968;24.196;2023-03-18T00:17:59;4.60;60.20
72604;DHT22;60645;56.968;24.196;2023-03-18T00:20:26;4.60;60.70
72604;DHT22;60645;56.968;24.196;2023-03-18T00:23:05;4.50;60.50
72604;DHT22;60645;56.968;24.196;2023-03-18T00:25:33;4.60;61.10
72604;DHT22;60645;56.968;24.196;2023-03-18T00:28:01;4.40;61.10
72604;DHT22;60645;56.968;24.196;2023-03-18T00:30:28;4.40;61.10
72604;DHT22;60645;56.968;24.196;2023-03-18T00:32:55;4.40;61.00
72604;DHT22;60645;56.968;24.196;2023-03-18T00:35:24;4.30;61.10
72604;DHT22;60645;56.968;24.196;2023-03-18T00:37:54;4.20;61.40
72604;DHT22;60645;56.968;24.196;2023-03-18T00:40:21;4.30;61.30
72604;DHT22;60645;56.968;24.196;2023-03-18T00:42:54;4.20;61.50
72604;DHT22;60645;56.968;24.196;2023-03-18T00:45:27;4.30;62.10
72604;DHT22;60645;56.968;24.196;2023-03-18T00:47:55;4.20;62.10
72604;DHT22;60645;56.968;24.196;2023-03-18T00:50:22;4.20;61.90
72604;DHT22;60645;56.968;24.196;2023-03-18T00:52:49;4.30;62.30
72604;DHT22;60645;56.968;24.196;2023-03-18T00:55:16;4.30;61.70
72604;DHT22;60645;56.968;24.196;2023-03-18T00:57:43;4.20;61.80
72604;DHT22;60645;56.968;24.196;2023-03-18T01:00:10;4.20;61.70
72604;DHT22;60645;56.968;24.196;2023-03-18T01:02:38;4.10;62.40
72604;DHT22;60645;56.968;24.196;2023-03-18T01:05:04;4.10;62.20
72604;DHT22;60645;56.968;24.196;2023-03-18T01:07:31;4.10;62.00
72604;DHT22;60645;56.968;24.196;2023-03-18T01:09:58;4.20;61.50
72604;DHT22;60645;56.968;24.196;2023-03-18T01:12:25;4.20;61.80
72604;DHT22;60645;56.968;24.196;2023-03-18T01:14:52;4.20;62.00
72604;DHT22;60645;56.968;24.196;2023-03-18T01:17:19;4.10;62.20
72604;DHT22;60645;56.968;24.196;2023-03-18T01:19:46;4.10;62.10
72604;DHT22;60645;56.968;24.196;2023-03-18T01:22:14;4.20;62.30
72604;DHT22;60645;56.968;24.196;2023-03-18T01:24:41;4.10;62.60
72604;DHT22;60645;56.968;24.196;2023-03-18T01:27:08;4.20;62.30
72604;DHT22;60645;56.968;24.196;2023-03-18T01:29:35;4.10;62.10
72604;DHT22;60645;56.968;24.196;2023-03-18T01:32:02;4.00;62.20
72604;DHT22;60645;56.968;24.196;2023-03-18T01:34:29;4.10;62.40
72604;DHT22;60645;56.968;24.196;2023-03-18T01:36:57;4.00;62.50
72604;DHT22;60645;56.968;24.196;2023-03-18T01:39:24;3.90;62.60
72604;DHT22;60645;56.968;24.196;2023-03-18T01:41:51;4.00;62.70
72604;DHT22;60645;56.968;24.196;2023-03-18T01:44:21;4.20;62.90
72604;DHT22;60645;56.968;24.196;2023-03-18T01:46:49;3.90;62.80
72604;DHT22;60645;56.968;24.196;2023-03-18T01:49:23;4.00;62.80
72604;DHT22;60645;56.968;24.196;2023-03-18T01:54:28;4.00;63.50
72604;DHT22;60645;56.968;24.196;2023-03-18T01:56:56;3.90;63.50
72604;DHT22;60645;56.968;24.196;2023-03-18T01:59:26;3.90;63.60
72604;DHT22;60645;56.968;24.196;2023-03-18T02:02:12;4.00;63.70
72604;DHT22;60645;56.968;24.196;2023-03-18T02:04:43;3.90;64.00
72604;DHT22;60645;56.968;24.196;2023-03-18T02:07:16;3.90;64.40
72604;DHT22;60645;56.968;24.196;2023-03-18T02:09:44;3.90;64.60
72604;DHT22;60645;56.968;24.196;2023-03-18T02:12:14;3.80;64.10
72604;DHT22;60645;56.968;24.196;2023-03-18T02:14:41;4.00;64.10
72604;DHT22;60645;56.968;24.196;2023-03-18T02:17:13;3.70;64.20
72604;DHT22;60645;56.968;24.196;2023-03-18T02:22:34;3.80;64.40
72604;DHT22;60645;56.968;24.196;2023-03-18T02:25:27;3.60;64.30
72604;DHT22;60645;56.968;24.196;2023-03-18T02:28:00;3.80;64.20
72604;DHT22;60645;56.968;24.196;2023-03-18T02:30:42;3.60;64.80
72604;DHT22;60645;56.968;24.196;2023-03-18T02:33:10;3.80;64.40
72604;DHT22;60645;56.968;24.196;2023-03-18T02:35:38;3.80;64.60
72604;DHT22;60645;56.968;24.196;2023-03-18T02:38:05;3.60;64.30
72604;DHT22;60645;56.968;24.196;2023-03-18T02:40:34;3.60;64.20
72604;DHT22;60645;56.968;24.196;2023-03-18T02:48:28;3.70;64.40
72604;DHT22;60645;56.968;24.196;2023-03-18T02:50:56;3.50;64.80
72604;DHT22;60645;56.968;24.196;2023-03-18T02:53:23;3.40;64.60
72604;DHT22;60645;56.968;24.196;2023-03-18T02:55:50;3.60;65.00
72604;DHT22;60645;56.968;24.196;2023-03-18T02:58:16;3.50;64.80
72604;DHT22;60645;56.968;24.196;2023-03-18T03:00:44;3.40;64.90
72604;DHT22;60645;56.968;24.196;2023-03-18T03:03:11;3.60;64.70
72604;DHT22;60645;56.968;24.196;2023-03-18T03:05:38;3.70;64.90
72604;DHT22;60645;56.968;24.196;2023-03-18T03:08:05;3.50;64.70
72604;DHT22;60645;56.968;24.196;2023-03-18T03:10:32;3.60;64.70
72604;DHT22;60645;56.968;24.196;2023-03-18T03:13:00;3.70;65.10
72604;DHT22;60645;56.968;24.196;2023-03-18T03:15:27;3.50;64.80
72604;DHT22;60645;56.968;24.196;2023-03-18T03:17:54;3.70;64.90
72604;DHT22;60645;56.968;24.196;2023-03-18T03:20:21;3.50;65.20
72604;DHT22;60645;56.968;24.196;2023-03-18T03:22:49;3.60;65.30
72604;DHT22;60645;56.968;24.196;2023-03-18T03:25:17;3.60;65.00
72604;DHT22;60645;56.968;24.196;2023-03-18T03:27:43;3.60;64.90
72604;DHT22;60645;56.968;24.196;2023-03-18T03:30:11;3.50;64.80
72604;DHT22;60645;56.968;24.196;2023-03-18T03:32:39;3.50;65.40
72604;DHT22;60645;56.968;24.196;2023-03-18T03:35:07;3.40;65.30
72604;DHT22;60645;56.968;24.196;2023-03-18T03:37:34;3.40;64.70
72604;DHT22;60645;56.968;24.196;2023-03-18T03:40:01;3.50;65.20
72604;DHT22;60645;56.968;24.196;2023-03-18T03:42:28;3.20;65.20
72604;DHT22;60645;56.968;24.196;2023-03-18T03:44:57;3.60;65.10
72604;DHT22;60645;56.968;24.196;2023-03-18T03:47:23;3.60;65.10
72604;DHT22;60645;56.968;24.196;2023-03-18T03:49:51;3.40;65.00
72604;DHT22;60645;56.968;24.196;2023-03-18T03:52:18;3.50;64.80
72604;DHT22;60645;56.968;24.196;2023-03-18T03:54:45;3.40;64.80
72604;DHT22;60645;56.968;24.196;2023-03-18T03:57:12;3.40;65.10
72604;DHT22;60645;56.968;24.196;2023-03-18T03:59:39;3.50;65.00
72604;DHT22;60645;56.968;24.196;2023-03-18T04:02:06;3.60;64.70
72604;DHT22;60645;56.968;24.196;2023-03-18T04:04:34;3.60;64.70
72604;DHT22;60645;56.968;24.196;2023-03-18T04:07:02;3.30;64.60
72604;DHT22;60645;56.968;24.196;2023-03-18T04:09:28;3.40;65.00
72604;DHT22;60645;56.968;24.196;2023-03-18T04:11:56;3.60;65.40
72604;DHT22;60645;56.968;24.196;2023-03-18T04:14:23;3.40;64.90
72604;DHT22;60645;56.968;24.196;2023-03-18T04:16:49;3.50;65.50
72604;DHT22;60645;56.968;24.196;2023-03-18T04:19:16;3.40;64.60
72604;DHT22;60645;56.968;24.196;2023-03-18T04:21:44;3.50;64.50
72604;DHT22;60645;56.968;24.196;2023-03-18T04:24:11;3.60;64.20
72604;DHT22;60645;56.968;24.196;2023-03-18T04:26:38;3.40;64.60
72604;DHT22;60645;56.968;24.196;2023-03-18T04:29:05;3.50;64.10
72604;DHT22;60645;56.968;24.196;2023-03-18T04:31:32;3.50;64.70
72604;DHT22;60645;56.968;24.196;2023-03-18T04:34:00;3.60;64.40
72604;DHT22;60645;56.968;24.196;2023-03-18T04:36:27;3.50;64.10
72604;DHT22;60645;56.968;24.196;2023-03-18T04:38:54;3.50;64.20
72604;DHT22;60645;56.968;24.196;2023-03-18T04:41:22;3.60;63.60
72604;DHT22;60645;56.968;24.196;2023-03-18T04:43:49;3.60;64.10
72604;DHT22;60645;56.968;24.196;2023-03-18T04:46:17;3.60;63.70
72604;DHT22;60645;56.968;24.196;2023-03-18T04:48:43;3.60;63.40
72604;DHT22;60645;56.968;24.196;2023-03-18T04:51:10;3.60;63.60
72604;DHT22;60645;56.968;24.196;2023-03-18T04:53:38;3.50;63.50
72604;DHT22;60645;56.968;24.196;2023-03-18T04:56:05;3.50;63.60
72604;DHT22;60645;56.968;24.196;2023-03-18T04:58:32;3.50;63.00
72604;DHT22;60645;56.968;24.196;2023-03-18T05:00:59;3.60;62.90
72604;DHT22;60645;56.968;24.196;2023-03-18T05:03:27;3.80;62.70
72604;DHT22;60645;56.968;24.196;2023-03-18T05:05:54;3.70;62.50
72604;DHT22;60645;56.968;24.196;2023-03-18T05:08:22;3.50;62.70
72604;DHT22;60645;56.968;24.196;2023-03-18T05:10:49;3.80;62.40
72604;DHT22;60645;56.968;24.196;2023-03-18T05:13:16;3.70;61.80
72604;DHT22;60645;56.968;24.196;2023-03-18T05:15:44;3.80;62.10
72604;DHT22;60645;56.968;24.196;2023-03-18T05:18:11;3.60;62.00
72604;DHT22;60645;56.968;24.196;2023-03-18T05:20:38;3.70;61.70
72604;DHT22;60645;56.968;24.196;2023-03-18T05:23:05;3.80;61.90
72604;DHT22;60645;56.968;24.196;2023-03-18T05:25:32;3.90;61.50
72604;DHT22;60645;56.968;24.196;2023-03-18T05:28:00;3.70;61.00
72604;DHT22;60645;56.968;24.196;2023-03-18T05:30:27;3.90;61.50
72604;DHT22;60645;56.968;24.196;2023-03-18T05:32:54;3.90;61.20
72604;DHT22;60645;56.968;24.196;2023-03-18T05:35:21;3.90;60.90
72604;DHT22;60645;56.968;24.196;2023-03-18T05:37:48;4.00;61.10
72604;DHT22;60645;56.968;24.196;2023-03-18T05:40:15;4.10;60.60
72604;DHT22;60645;56.968;24.196;2023-03-18T05:42:42;3.90;61.00
72604;DHT22;60645;56.968;24.196;2023-03-18T05:45:22;4.00;60.30
72604;DHT22;60645;56.968;24.196;2023-03-18T05:47:49;4.10;60.20
72604;DHT22;60645;56.968;24.196;2023-03-18T05:50:32;4.40;59.70
72604;DHT22;60645;56.968;24.196;2023-03-18T05:53:00;4.30;59.50
72604;DHT22;60645;56.968;24.196;2023-03-18T05:55:28;4.30;59.10
72604;DHT22;60645;56.968;24.196;2023-03-18T05:57:55;4.40;58.90
72604;DHT22;60645;56.968;24.196;2023-03-18T06:00:23;4.60;58.80
72604;DHT22;60645;56.968;24.196;2023-03-18T06:02:50;4.80;58.20
72604;DHT22;60645;56.968;24.196;2023-03-18T06:05:20;4.80;57.60
72604;DHT22;60645;56.968;24.196;2023-03-18T06:07:48;4.90;57.20
72604;DHT22;60645;56.968;24.196;2023-03-18T06:10:15;5.10;57.00
72604;DHT22;60645;56.968;24.196;2023-03-18T06:12:42;5.20;56.50
72604;DHT22;60645;56.968;24.196;2023-03-18T06:15:11;5.30;56.00
72604;DHT22;60645;56.968;24.196;2023-03-18T06:17:38;5.60;55.90
72604;DHT22;60645;56.968;24.196;2023-03-18T06:20:05;5.60;55.20
72604;DHT22;60645;56.968;24.196;2023-03-18T06:22:34;5.70;55.50
72604;DHT22;60645;56.968;24.196;2023-03-18T06:25:03;6.00;54.50
72604;DHT22;60645;56.968;24.196;2023-03-18T06:27:30;5.90;54.00
72604;DHT22;60645;56.968;24.196;2023-03-18T06:29:57;6.20;53.40
72604;DHT22;60645;56.968;24.196;2023-03-18T06:32:28;6.20;53.40
72604;DHT22;60645;56.968;24.196;2023-03-18T06:34:55;6.40;52.60
72604;DHT22;60645;56.968;24.196;2023-03-18T06:37:22;6.90;52.20
72604;DHT22;60645;56.968;24.196;2023-03-18T06:39:49;6.90;51.60
72604;DHT22;60645;56.968;24.196;2023-03-18T06:42:16;7.20;51.40
72604;DHT22;60645;56.968;24.196;2023-03-18T06:44:43;6.90;51.60
72604;DHT22;60645;56.968;24.196;2023-03-18T06:47:17;6.90;51.70
72604;DHT22;60645;56.968;24.196;2023-03-18T06:49:44;6.90;51.50
72604;DHT22;60645;56.968;24.196;2023-03-18T06:52:12;7.30;51.10
72604;DHT22;60645;56.968;24.196;2023-03-18T06:54:39;7.70;51.30
72604;DHT22;60645;56.968;24.196;2023-03-18T06:57:06;8.40;49.30
72604;DHT22;60645;56.968;24.196;2023-03-18T06:59:34;9.30;48.20
72604;DHT22;60645;56.968;24.196;2023-03-18T07:02:01;9.30;47.40
72604;DHT22;60645;56.968;24.196;2023-03-18T07:04:28;8.60;47.70
72604;DHT22;60645;56.968;24.196;2023-03-18T07:06:56;8.70;48.00
72604;DHT22;60645;56.968;24.196;2023-03-18T07:09:23;8.70;48.10
72604;DHT22;60645;56.968;24.196;2023-03-18T07:11:50;8.90;47.80
72604;DHT22;60645;56.968;24.196;2023-03-18T07:14:16;9.00;47.30
72604;DHT22;60645;56.968;24.196;2023-03-18T07:16:44;9.40;47.50
72604;DHT22;60645;56.968;24.196;2023-03-18T07:19:11;9.50;46.80
72604;DHT22;60645;56.968;24.196;2023-03-18T07:21:38;9.90;46.30
72604;DHT22;60645;56.968;24.196;2023-03-18T07:24:06;10.20;45.60
72604;DHT22;60645;56.968;24.196;2023-03-18T07:26:34;9.80;46.20
72604;DHT22;60645;56.968;24.196;2023-03-18T07:29:01;9.90;45.90
72604;DHT22;60645;56.968;24.196;2023-03-18T07:31:28;10.00;46.10
72604;DHT22;60645;56.968;24.196;2023-03-18T07:33:56;10.10;45.20
72604;DHT22;60645;56.968;24.196;2023-03-18T07:36:24;10.40;45.90
72604;DHT22;60645;56.968;24.196;2023-03-18T07:38:53;11.00;44.50
72604;DHT22;60645;56.968;24.196;2023-03-18T07:41:20;11.50;43.20
72604;DHT22;60645;56.968;24.196;2023-03-18T07:43:47;11.20;43.60
72604;DHT22;60645;56.968;24.196;2023-03-18T07:46:14;10.60;44.00
72604;DHT22;60645;56.968;24.196;2023-03-18T07:48:40;10.20;44.80
72604;DHT22;60645;56.968;24.196;2023-03-18T07:51:07;10.50;44.70
72604;DHT22;60645;56.968;24.196;2023-03-18T07:53:34;10.50;44.00
72604;DHT22;60645;56.968;24.196;2023-03-18T07:56:01;10.10;45.00
72604;DHT22;60645;56.968;24.196;2023-03-18T07:58:29;10.30;44.50
72604;DHT22;60645;56.968;24.196;2023-03-18T08:00:56;10.10;44.70
72604;DHT22;60645;56.968;24.196;2023-03-18T08:03:23;10.20;44.80
72604;DHT22;60645;56.968;24.196;2023-03-18T08:05:50;10.20;45.20
72604;DHT22;60645;56.968;24.196;2023-03-18T08:08:17;10.30;45.20
72604;DHT22;60645;56.968;24.196;2023-03-18T08:10:44;10.10;45.40
72604;DHT22;60645;56.968;24.196;2023-03-18T08:13:10;9.80;45.70
72604;DHT22;60645;56.968;24.196;2023-03-18T08:15:39;10.40;45.30
72604;DHT22;60645;56.968;24.196;2023-03-18T08:18:06;10.50;45.60
72604;DHT22;60645;56.968;24.196;2023-03-18T08:20:35;10.70;44.10
72604;DHT22;60645;56.968;24.196;2023-03-18T08:23:01;10.00;45.60
72604;DHT22;60645;56.968;24.196;2023-03-18T08:25:29;10.20;45.40
72604;DHT22;60645;56.968;24.196;2023-03-18T08:27:56;10.50;45.20
72604;DHT22;60645;56.968;24.196;2023-03-18T08:30:23;10.00;45.80
72604;DHT22;60645;56.968;24.196;2023-03-18T08:32:54;10.00;46.60
72604;DHT22;60645;56.968;24.196;2023-03-18T08:35:21;9.20;47.20
72604;DHT22;60645;56.968;24.196;2023-03-18T08:37:49;9.00;48.10
72604;DHT22;60645;56.968;24.196;2023-03-18T08:40:17;9.10;47.30
72604;DHT22;60645;56.968;24.196;2023-03-18T08:42:45;9.00;48.20
72604;DHT22;60645;56.968;24.196;2023-03-18T08:45:12;8.70;48.90
72604;DHT22;60645;56.968;24.196;2023-03-18T08:47:39;8.90;48.50
72604;DHT22;60645;56.968;24.196;2023-03-18T08:50:07;9.10;48.00
72604;DHT22;60645;56.968;24.196;2023-03-18T08:52:34;8.80;48.60
72604;DHT22;60645;56.968;24.196;2023-03-18T08:55:04;9.00;48.40
72604;DHT22;60645;56.968;24.196;2023-03-18T08:57:31;9.50;47.30
72604;DHT22;60645;56.968;24.196;2023-03-18T08:59:58;10.10;46.90
72604;DHT22;60645;56.968;24.196;2023-03-18T09:02:24;10.70;45.50
72604;DHT22;60645;56.968;24.196;2023-03-18T09:04:52;10.90;45.40
72604;DHT22;60645;56.968;24.196;2023-03-18T09:07:19;10.30;45.30
72604;DHT22;60645;56.968;24.196;2023-03-18T09:09:46;10.30;45.30
72604;DHT22;60645;56.968;24.196;2023-03-18T09:12:13;10.60;45.90
72604;DHT22;60645;56.968;24.196;2023-03-18T09:14:40;10.70;45.30
72604;DHT22;60645;56.968;24.196;2023-03-18T09:17:08;10.40;45.30
72604;DHT22;60645;56.968;24.196;2023-03-18T09:19:35;11.20;44.30
72604;DHT22;60645;56.968;24.196;2023-03-18T09:22:03;11.50;44.00
72604;DHT22;60645;56.968;24.196;2023-03-18T09:24:29;11.00;44.10
72604;DHT22;60645;56.968;24.196;2023-03-18T09:26:57;11.30;44.30
72604;DHT22;60645;56.968;24.196;2023-03-18T09:29:25;12.30;42.80
72604;DHT22;60645;56.968;24.196;2023-03-18T09:31:53;12.20;42.80
72604;DHT22;60645;56.968;24.196;2023-03-18T09:34:21;12.30;42.30
72604;DHT22;60645;56.968;24.196;2023-03-18T09:36:48;12.70;42.00
72604;DHT22;60645;56.968;24.196;2023-03-18T09:39:20;13.50;41.00
72604;DHT22;60645;56.968;24.196;2023-03-18T09:44:30;13.10;41.00
72604;DHT22;60645;56.968;24.196;2023-03-18T09:47:23;13.50;41.00
72604;DHT22;60645;56.968;24.196;2023-03-18T09:52:35;13.20;41.30
72604;DHT22;60645;56.968;24.196;2023-03-18T09:55:24;12.80;40.60
72604;DHT22;60645;56.968;24.196;2023-03-18T09:57:53;12.40;42.30
72604;DHT22;60645;56.968;24.196;2023-03-18T10:00:26;11.90;43.50
72604;DHT22;60645;56.968;24.196;2023-03-18T10:03:00;10.10;45.40
72604;DHT22;60645;56.968;24.196;2023-03-18T10:05:33;10.00;45.30
72604;DHT22;60645;56.968;24.196;2023-03-18T10:08:05;9.90;45.80
72604;DHT22;60645;56.968;24.196;2023-03-18T10:10:37;10.00;45.90
72604;DHT22;60645;56.968;24.196;2023-03-18T10:18:11;11.00;45.10
72604;DHT22;60645;56.968;24.196;2023-03-18T10:25:53;11.80;42.60
72604;DHT22;60645;56.968;24.196;2023-03-18T10:36:22;11.80;44.00
72604;DHT22;60645;56.968;24.196;2023-03-18T10:38:54;12.10;43.20
72604;DHT22;60645;56.968;24.196;2023-03-18T10:41:32;10.90;44.60
72604;DHT22;60645;56.968;24.196;2023-03-18T10:44:14;11.00;44.90
72604;DHT22;60645;56.968;24.196;2023-03-18T10:46:43;11.90;43.50
72604;DHT22;60645;56.968;24.196;2023-03-18T10:49:15;12.00;43.60
72604;DHT22;60645;56.968;24.196;2023-03-18T10:54:15;12.20;43.80
72604;DHT22;60645;56.968;24.196;2023-03-18T10:56:48;12.50;43.10
72604;DHT22;60645;56.968;24.196;2023-03-18T10:59:19;12.60;43.30
72604;DHT22;60645;56.968;24.196;2023-03-18T11:01:47;11.90;44.10
72604;DHT22;60645;56.968;24.196;2023-03-18T11:04:16;12.10;43.90
72604;DHT22;60645;56.968;24.196;2023-03-18T11:06:46;11.80;44.40
72604;DHT22;60645;56.968;24.196;2023-03-18T11:09:18;11.10;45.20
72604;DHT22;60645;56.968;24.196;2023-03-18T11:11:46;11.30;45.30
72604;DHT22;60645;56.968;24.196;2023-03-18T11:14:15;11.00;45.10
72604;DHT22;60645;56.968;24.196;2023-03-18T11:16:56;10.30;45.80
72604;DHT22;60645;56.968;24.196;2023-03-18T11:19:27;10.10;46.10
72604;DHT22;60645;56.968;24.196;2023-03-18T11:24:27;10.40;46.00
72604;DHT22;60645;56.968;24.196;2023-03-18T11:27:56;10.60;45.80
72604;DHT22;60645;56.968;24.196;2023-03-18T11:29:58;10.20;46.40
72604;DHT22;60645;56.968;24.196;2023-03-18T11:34:54;10.50;45.90
72604;DHT22;60645;56.968;24.196;2023-03-18T11:37:29;10.40;46.80
72604;DHT22;60645;56.968;24.196;2023-03-18T11:42:40;10.40;46.80
72604;DHT22;60645;56.968;24.196;2023-03-18T11:45:19;10.40;46.60
72604;DHT22;60645;56.968;24.196;2023-03-18T11:47:49;10.30;46.90
72604;DHT22;60645;56.968;24.196;2023-03-18T11:50:19;10.50;47.00
72604;DHT22;60645;56.968;24.196;2023-03-18T11:53:09;10.20;47.40
72604;DHT22;60645;56.968;24.196;2023-03-18T11:58:14;10.60;46.60
72604;DHT22;60645;56.968;24.196;2023-03-18T12:03:32;10.70;47.10
72604;DHT22;60645;56.968;24.196;2023-03-18T12:06:04;10.90;46.60
72604;DHT22;60645;56.968;24.196;2023-03-18T12:11:15;12.50;44.90
72604;DHT22;60645;56.968;24.196;2023-03-18T12:13:48;11.90;45.40
72604;DHT22;60645;56.968;24.196;2023-03-18T12:34:27;11.60;46.50
72604;DHT22;60645;56.968;24.196;2023-03-18T12:37:03;12.20;45.90
72604;DHT22;60645;56.968;24.196;2023-03-18T12:50:12;12.40;45.00
72604;DHT22;60645;56.968;24.196;2023-03-18T12:52:44;12.30;44.90
72604;DHT22;60645;56.968;24.196;2023-03-18T12:55:46;11.30;45.80
72604;DHT22;60645;56.968;24.196;2023-03-18T12:58:12;10.80;46.90
72604;DHT22;60645;56.968;24.196;2023-03-18T13:00:44;11.10;46.60
72604;DHT22;60645;56.968;24.196;2023-03-18T13:05:51;11.40;45.60
72604;DHT22;60645;56.968;24.196;2023-03-18T13:10:53;11.90;46.10
72604;DHT22;60645;56.968;24.196;2023-03-18T13:13:22;11.90;45.30
72604;DHT22;60645;56.968;24.196;2023-03-18T13:15:50;11.30;45.70
72604;DHT22;60645;56.968;24.196;2023-03-18T13:18:19;11.10;46.10
72604;DHT22;60645;56.968;24.196;2023-03-18T13:20:47;10.60;46.50
72604;DHT22;60645;56.968;24.196;2023-03-18T13:33:31;10.10;48.60
72604;DHT22;60645;56.968;24.196;2023-03-18T13:38:39;10.00;48.10
72604;DHT22;60645;56.968;24.196;2023-03-18T13:44:02;10.10;48.30
72604;DHT22;60645;56.968;24.196;2023-03-18T13:46:30;10.20;48.20
72604;DHT22;60645;56.968;24.196;2023-03-18T13:48:59;10.20;48.00
72604;DHT22;60645;56.968;24.196;2023-03-18T13:54:00;10.10;47.20
72604;DHT22;60645;56.968;24.196;2023-03-18T13:59:01;10.00;47.70
72604;DHT22;60645;56.968;24.196;2023-03-18T14:01:30;10.10;48.20
72604;DHT22;60645;56.968;24.196;2023-03-18T14:04:03;10.10;47.80
72604;DHT22;60645;56.968;24.196;2023-03-18T14:06:46;10.10;48.10
72604;DHT22;60645;56.968;24.196;2023-03-18T14:12:15;9.90;48.60
72604;DHT22;60645;56.968;24.196;2023-03-18T14:17:31;9.80;48.50
72604;DHT22;60645;56.968;24.196;2023-03-18T14:20:05;9.70;48.90
72604;DHT22;60645;56.968;24.196;2023-03-18T14:22:33;9.60;49.00
72604;DHT22;60645;56.968;24.196;2023-03-18T14:25:16;9.70;48.90
72604;DHT22;60645;56.968;24.196;2023-03-18T14:33:04;9.60;49.30
72604;DHT22;60645;56.968;24.196;2023-03-18T14:35:33;9.50;49.40
72604;DHT22;60645;56.968;24.196;2023-03-18T14:40:35;9.60;50.30
72604;DHT22;60645;56.968;24.196;2023-03-18T14:43:13;9.70;49.40
72604;DHT22;60645;56.968;24.196;2023-03-18T14:45:42;9.60;49.70
72604;DHT22;60645;56.968;24.196;2023-03-18T14:48:22;9.50;50.10
72604;DHT22;60645;56.968;24.196;2023-03-18T14:50:50;9.60;50.20
72604;DHT22;60645;56.968;24.196;2023-03-18T14:55:49;9.50;50.40
72604;DHT22;60645;56.968;24.196;2023-03-18T14:58:20;9.50;50.70
72604;DHT22;60645;56.968;24.196;2023-03-18T15:01:08;9.40;50.80
72604;DHT22;60645;56.968;24.196;2023-03-18T15:03:37;9.50;50.90
72604;DHT22;60645;56.968;24.196;2023-03-18T15:06:04;9.40;51.10
72604;DHT22;60645;56.968;24.196;2023-03-18T15:08:33;9.40;51.20
72604;DHT22;60645;56.968;24.196;2023-03-18T15:11:13;9.30;51.50
72604;DHT22;60645;56.968;24.196;2023-03-18T15:13:42;9.30;51.70
72604;DHT22;60645;56.968;24.196;2023-03-18T15:16:10;9.10;51.70
72604;DHT22;60645;56.968;24.196;2023-03-18T15:18:39;9.20;52.10
72604;DHT22;60645;56.968;24.196;2023-03-18T15:21:13;9.20;51.90
72604;DHT22;60645;56.968;24.196;2023-03-18T15:23:48;9.20;51.90
72604;DHT22;60645;56.968;24.196;2023-03-18T15:26:20;9.10;52.50
72604;DHT22;60645;56.968;24.196;2023-03-18T15:28:53;9.10;52.30
72604;DHT22;60645;56.968;24.196;2023-03-18T15:31:30;9.10;52.50
72604;DHT22;60645;56.968;24.196;2023-03-18T15:36:37;9.00;53.10
72604;DHT22;60645;56.968;24.196;2023-03-18T15:39:18;9.00;53.40
72604;DHT22;60645;56.968;24.196;2023-03-18T15:41:56;9.00;53.30
72604;DHT22;60645;56.968;24.196;2023-03-18T15:44:25;9.00;53.60
72604;DHT22;60645;56.968;24.196;2023-03-18T15:46:54;8.90;54.00
72604;DHT22;60645;56.968;24.196;2023-03-18T15:49:25;8.90;54.50
72604;DHT22;60645;56.968;24.196;2023-03-18T15:52:00;8.90;55.00
72604;DHT22;60645;56.968;24.196;2023-03-18T15:54:48;8.90;55.20
72604;DHT22;60645;56.968;24.196;2023-03-18T15:57:20;8.80;55.40
72604;DHT22;60645;56.968;24.196;2023-03-18T15:59:49;8.70;55.90
72604;DHT22;60645;56.968;24.196;2023-03-18T16:02:15;8.60;56.30
72604;DHT22;60645;56.968;24.196;2023-03-18T16:04:44;8.70;56.80
72604;DHT22;60645;56.968;24.196;2023-03-18T16:07:16;8.70;56.80
72604;DHT22;60645;56.968;24.196;2023-03-18T16:09:44;8.60;57.10
72604;DHT22;60645;56.968;24.196;2023-03-18T16:12:20;8.60;57.20
72604;DHT22;60645;56.968;24.196;2023-03-18T16:14:48;8.60;57.50
72604;DHT22;60645;56.968;24.196;2023-03-18T16:17:16;8.60;57.70
72604;DHT22;60645;56.968;24.196;2023-03-18T16:19:47;8.60;58.10
72604;DHT22;60645;56.968;24.196;2023-03-18T16:22:19;8.50;58.40
72604;DHT22;60645;56.968;24.196;2023-03-18T16:24:46;8.50;58.40
72604;DHT22;60645;56.968;24.196;2023-03-18T16:29:53;8.50;58.80
72604;DHT22;60645;56.968;24.196;2023-03-18T16:32:21;8.50;58.60
72604;DHT22;60645;56.968;24.196;2023-03-18T16:34:48;8.40;58.80
72604;DHT22;60645;56.968;24.196;2023-03-18T16:37:17;8.50;59.10
72604;DHT22;60645;56.968;24.196;2023-03-18T16:39:44;8.40;58.80
72604;DHT22;60645;56.968;24.196;2023-03-18T16:42:11;8.40;59.20
72604;DHT22;60645;56.968;24.196;2023-03-18T16:44:39;8.50;59.20
72604;DHT22;60645;56.968;24.196;2023-03-18T16:47:08;8.40;59.60
72604;DHT22;60645;56.968;24.196;2023-03-18T16:49:40;8.40;59.60
72604;DHT22;60645;56.968;24.196;2023-03-18T16:52:08;8.40;59.70
72604;DHT22;60645;56.968;24.196;2023-03-18T16:54:37;8.40;59.60
72604;DHT22;60645;56.968;24.196;2023-03-18T16:57:04;8.30;60.10
72604;DHT22;60645;56.968;24.196;2023-03-18T16:59:32;8.40;60.10
72604;DHT22;60645;56.968;24.196;2023-03-18T17:02:01;8.20;60.20
72604;DHT22;60645;56.968;24.196;2023-03-18T17:04:30;8.30;60.40
72604;DHT22;60645;56.968;24.196;2023-03-18T17:06:59;8.20;60.10
72604;DHT22;60645;56.968;24.196;2023-03-18T17:09:26;8.30;60.50
72604;DHT22;60645;56.968;24.196;2023-03-18T17:11:55;8.20;60.70
72604;DHT22;60645;56.968;24.196;2023-03-18T17:14:26;8.20;60.70
72604;DHT22;60645;56.968;24.196;2023-03-18T17:16:55;8.30;60.70
72604;DHT22;60645;56.968;24.196;2023-03-18T17:19:22;8.30;61.10
72604;DHT22;60645;56.968;24.196;2023-03-18T17:21:51;8.30;61.50
72604;DHT22;60645;56.968;24.196;2023-03-18T17:24:19;8.20;61.40
72604;DHT22;60645;56.968;24.196;2023-03-18T17:26:47;8.20;61.30
72604;DHT22;60645;56.968;24.196;2023-03-18T17:29:21;8.20;61.60
72604;DHT22;60645;56.968;24.196;2023-03-18T17:31:50;8.20;61.90
72604;DHT22;60645;56.968;24.196;2023-03-18T17:34:17;8.10;62.10
72604;DHT22;60645;56.968;24.196;2023-03-18T17:36:44;8.10;62.40
72604;DHT22;60645;56.968;24.196;2023-03-18T17:39:11;7.90;62.20
72604;DHT22;60645;56.968;24.196;2023-03-18T17:41:38;8.20;62.50
72604;DHT22;60645;56.968;24.196;2023-03-18T17:44:24;8.20;62.30
72604;DHT22;60645;56.968;24.196;2023-03-18T17:46:55;8.10;62.50
72604;DHT22;60645;56.968;24.196;2023-03-18T17:49:23;8.00;62.40